KTEX

Telluride Regional Airport

Telluride, Colorado, USA
METAR KTEX 191855Z AUTO 09005KT 7SM -RA SCT032 SCT042 OVC050 11/08 A3034 RMK AO2 P0007
Observed Flight Rules
Sep-19 @ 18:55 UTC (26 minutes ago) Visual Flight Rules
Wind Visibility Clouds Conditions
90° at 5 knots 7 miles
  • Scattered at 3,200' AGL
  • Scattered at 4,200' AGL
  • Overcast at 5,000' AGL
  • Light Rain
Temperatures Readings Precipitation
Current 11°C / 52°F
Dewpoint 8°C / 46°F
Humidity 82%
Altimeter 30.34" Hg
Pressure 1027 hPa
Elevation 2769
Current Rain 0.07
METAR KTEX 191855Z AUTO 09005KT 7SM -RA SCT032 SCT042 OVC050 11/08 A3034 RMK AO2 P0007
Observed Flight Rules
Sep-19 @ 18:55 UTC
(26 minutes ago)
VFR
Wind Visibility
90° at 5 knots 7 miles
Clouds
  • Scattered at 3,200' AGL
  • Scattered at 4,200' AGL
  • Overcast at 5,000' AGL
Conditions
  • Light Rain
Temperature Dewpoint
11°C / 52°F 8°C / 46°F
Humidity Altimeter Pressure
82% 30.34" Hg 1027 hPa
Current Rain
0.07